Time;durP1;ratioP1;P1;durP2;ratioP2;P2;SDS_P1;SDS_P2;PMS_P1;PMS_P2;Temp;Humidity;BMP_temperature;BMP_pressure;BME280_temperature;BME280_humidity;BME280_pressure;Samples;Min_cycle;Max_cycle;Signal;HPM_P1;HPM_P2
2023/03/19 00:02:00;;;;;;;2.13;0.98;;;;;;;14.15;88.66;100480.34;5015856;28;20326;-50
2023/03/19 00:04:26;;;;;;;1.92;1.20;;;;;;;14.16;88.91;100473.78;5023060;28;20029;-49
2023/03/19 00:06:52;;;;;;;1.05;0.88;;;;;;;14.16;88.67;100479.22;5030546;28;20527;-47
2023/03/19 00:09:19;;;;;;;2.45;0.90;;;;;;;13.98;88.66;100483.78;5030287;28;20045;-47
2023/03/19 00:11:45;;;;;;;2.30;1.13;;;;;;;13.96;88.88;100477.97;5031243;28;20034;-48
2023/03/19 00:14:11;;;;;;;1.30;0.77;;;;;;;13.90;89.16;100478.75;5030895;28;20503;-48
2023/03/19 00:16:36;;;;;;;1.55;0.90;;;;;;;13.78;89.53;100481.78;5030571;28;20589;-47
2023/03/19 00:19:02;;;;;;;2.70;1.38;;;;;;;13.82;89.36;100480.63;5025161;28;20029;-47
2023/03/19 00:21:29;;;;;;;1.70;0.85;;;;;;;13.81;88.69;100486.41;5030660;28;20100;-48
2023/03/19 00:23:59;;;;;;;2.45;1.00;;;;;;;13.77;89.17;100489.09;5035734;28;20033;-47
2023/03/19 00:26:27;;;;;;;0.95;0.73;;;;;;;13.79;89.48;100489.50;5028023;28;20177;-47
2023/03/19 00:28:53;;;;;;;1.70;1.00;;;;;;;13.60;89.87;100495.22;5034135;28;20116;-50
2023/03/19 00:31:18;;;;;;;2.22;1.08;;;;;;;13.41;90.37;100498.19;5012970;28;20037;-48
2023/03/19 00:33:44;;;;;;;0.95;0.82;;;;;;;13.47;90.32;100494.75;5030567;28;20497;-48
2023/03/19 00:36:10;;;;;;;0.75;0.73;;;;;;;13.54;90.39;100499.44;5025469;28;20065;-47
2023/03/19 00:38:36;;;;;;;0.80;0.70;;;;;;;13.57;90.62;100499.44;5023655;28;20025;-48
2023/03/19 00:41:04;;;;;;;5.03;1.20;;;;;;;13.58;90.73;100500.22;5032630;28;20040;-49
2023/03/19 00:43:30;;;;;;;1.85;1.38;;;;;;;13.63;90.50;100499.09;5029261;28;20017;-48
2023/03/19 00:45:56;;;;;;;1.63;0.77;;;;;;;13.48;90.13;100490.91;5025621;28;20039;-48
2023/03/19 00:48:22;;;;;;;1.25;1.02;;;;;;;13.48;90.90;100488.19;5033279;28;20038;-48
2023/03/19 00:50:47;;;;;;;0.68;0.68;;;;;;;13.57;90.25;100493.25;5027769;28;20071;-49
2023/03/19 00:53:13;;;;;;;1.83;1.10;;;;;;;13.51;90.59;100495.53;5023443;28;20032;-49
2023/03/19 00:55:39;;;;;;;0.93;0.70;;;;;;;13.52;90.73;100493.63;5035149;28;20455;-49
2023/03/19 00:58:05;;;;;;;1.02;0.80;;;;;;;13.63;90.26;100499.84;5024125;28;20013;-52
2023/03/19 01:00:32;;;;;;;1.25;0.70;;;;;;;13.63;90.54;100501.81;5033236;28;20037;-47
2023/03/19 01:02:57;;;;;;;1.05;0.70;;;;;;;13.56;91.15;100491.72;5033389;28;20034;-48
2023/03/19 01:05:23;;;;;;;1.35;0.90;;;;;;;13.54;90.67;100494.81;5036252;28;20037;-47
2023/03/19 01:07:50;;;;;;;0.50;0.47;;;;;;;13.46;91.13;100497.84;5030553;28;20029;-48
2023/03/19 01:10:20;;;;;;;0.82;0.70;;;;;;;13.42;91.50;100499.75;5034848;28;20515;-47
2023/03/19 01:12:47;;;;;;;0.63;0.63;;;;;;;13.39;90.65;100503.97;5030216;28;20033;-47
2023/03/19 01:15:12;;;;;;;0.82;0.68;;;;;;;13.27;91.36;100504.28;5036061;28;20037;-48
2023/03/19 01:17:38;;;;;;;0.50;0.50;;;;;;;13.13;91.75;100503.41;5024279;28;20021;-49
2023/03/19 01:20:07;;;;;;;0.80;0.70;;;;;;;13.18;92.06;100500.38;5021456;28;20034;-46
2023/03/19 01:22:36;;;;;;;0.40;0.40;;;;;;;13.29;91.62;100498.50;5030889;28;20118;-47
2023/03/19 01:25:03;;;;;;;1.42;0.50;;;;;;;13.32;91.69;100503.94;5033884;28;20029;-46
2023/03/19 01:27:29;;;;;;;0.50;0.50;;;;;;;13.32;91.31;100500.44;5029302;28;20068;-53
2023/03/19 01:29:55;;;;;;;0.60;0.45;;;;;;;13.33;91.45;100488.47;5028453;28;20033;-48
2023/03/19 01:32:46;;;;;;;0.60;0.60;;;;;;;13.25;91.09;100492.28;5019323;28;20041;-46
2023/03/19 01:35:30;;;;;;;0.40;0.40;;;;;;;13.25;91.34;100495.78;5017138;28;20095;-46
2023/03/19 01:37:56;;;;;;;0.98;0.45;;;;;;;13.28;91.38;100499.63;5015376;28;20112;-46
2023/03/19 01:40:22;;;;;;;0.70;0.50;;;;;;;13.05;91.82;100496.38;5006283;28;20598;-45
2023/03/19 01:42:55;;;;;;;0.85;0.68;;;;;;;13.06;91.72;100496.03;5020301;28;20033;-46
2023/03/19 01:45:44;;;;;;;0.30;0.30;;;;;;;13.15;91.88;100499.19;5026786;28;20041;-46
2023/03/19 01:48:58;;;;;;;0.30;0.30;;;;;;;13.17;91.97;100496.09;5030841;28;20092;-46
2023/03/19 01:51:29;;;;;;;0.60;0.50;;;;;;;13.22;91.82;100499.22;5023819;28;20030;-47
2023/03/19 01:54:11;;;;;;;0.60;0.60;;;;;;;13.15;91.63;100493.00;5028076;28;20033;-52
2023/03/19 01:57:05;;;;;;;0.85;0.85;;;;;;;13.21;91.93;100486.88;5008293;28;20041;-46
2023/03/19 02:00:06;;;;;;;0.30;0.30;;;;;;;13.35;91.55;100488.88;5015614;28;20053;-49
2023/03/19 02:02:47;;;;;;;0.68;0.35;;;;;;;13.37;91.96;100481.94;5019878;28;20049;-46
2023/03/19 02:05:35;;;;;;;0.30;0.30;;;;;;;13.30;92.94;100490.00;5015767;28;20041;-48
2023/03/19 02:08:08;;;;;;;2.15;0.63;;;;;;;13.21;93.37;100486.88;5014190;28;20034;-46
2023/03/19 02:10:35;;;;;;;0.47;0.47;;;;;;;13.10;93.66;100485.22;5022081;28;20397;-48
2023/03/19 02:13:00;;;;;;;0.52;0.52;;;;;;;13.26;94.39;100478.38;5022953;28;20033;-46
2023/03/19 02:15:29;;;;;;;0.28;0.28;;;;;;;13.37;93.70;100483.88;5027506;28;20491;-47
2023/03/19 02:17:55;;;;;;;0.45;0.35;;;;;;;13.28;94.32;100481.50;5028070;28;20026;-47
2023/03/19 02:20:36;;;;;;;0.65;0.40;;;;;;;13.45;93.26;100488.94;5025278;28;20469;-45
2023/03/19 02:23:12;;;;;;;0.55;0.55;;;;;;;13.36;93.18;100480.38;5012490;28;20037;-50
2023/03/19 02:25:45;;;;;;;0.60;0.50;;;;;;;13.35;94.35;100483.47;5030560;28;20079;-50
2023/03/19 02:28:14;;;;;;;0.35;0.35;;;;;;;13.29;94.62;100482.28;5012090;28;20037;-46
2023/03/19 02:30:42;;;;;;;0.40;0.40;;;;;;;13.33;94.90;100491.19;5023901;28;20400;-50
2023/03/19 02:33:14;;;;;;;0.55;0.28;;;;;;;13.30;95.22;100489.22;5027918;28;20057;-49
2023/03/19 02:35:41;;;;;;;0.30;0.30;;;;;;;13.44;94.67;100492.81;5029780;28;20055;-46
2023/03/19 02:38:07;;;;;;;0.20;0.20;;;;;;;13.41;94.50;100485.44;5021726;28;20479;-49
2023/03/19 02:40:38;;;;;;;0.50;0.50;;;;;;;13.49;93.96;100491.69;5020728;28;20602;-49
2023/03/19 02:43:03;;;;;;;1.17;0.60;;;;;;;13.49;93.92;100491.69;5019652;28;20021;-50
2023/03/19 02:45:31;;;;;;;1.13;0.50;;;;;;;13.49;94.39;100488.97;5030574;28;20028;-48
2023/03/19 02:47:58;;;;;;;0.60;0.60;;;;;;;13.50;94.11;100479.69;5031285;28;20045;-48
2023/03/19 02:50:23;;;;;;;0.73;0.50;;;;;;;13.50;94.18;100483.19;5029288;28;20450;-47
2023/03/19 02:52:48;;;;;;;2.25;0.65;;;;;;;13.52;94.37;100482.78;5037109;28;20025;-51
2023/03/19 02:55:17;;;;;;;0.55;0.50;;;;;;;13.52;94.39;100480.09;5051132;28;20044;-49
2023/03/19 02:57:43;;;;;;;0.60;0.40;;;;;;;13.55;93.61;100485.53;5033323;28;20511;-51
2023/03/19 03:00:11;;;;;;;0.50;0.20;;;;;;;13.54;93.60;100481.28;5032350;28;20025;-47
2023/03/19 03:02:37;;;;;;;2.67;0.77;;;;;;;13.39;94.66;100486.97;5048836;28;20045;-50
2023/03/19 03:05:04;;;;;;;0.57;0.47;;;;;;;13.35;95.43;100486.97;5018299;28;20033;-49
2023/03/19 03:07:29;;;;;;;0.55;0.50;;;;;;;13.46;94.98;100487.78;5023122;28;20025;-50
2023/03/19 03:09:56;;;;;;;0.70;0.45;;;;;;;13.51;94.19;100495.53;5034907;28;20379;-48
2023/03/19 03:12:21;;;;;;;0.25;0.25;;;;;;;13.55;94.14;100488.22;5039335;28;20033;-47
2023/03/19 03:14:48;;;;;;;0.32;0.30;;;;;;;13.53;93.76;100495.16;5032159;28;20032;-51
2023/03/19 03:17:14;;;;;;;1.38;0.80;;;;;;;13.56;92.79;100492.50;5028380;28;20034;-49
2023/03/19 03:19:39;;;;;;;0.68;0.43;;;;;;;13.39;94.13;100493.16;5030712;28;20263;-49
2023/03/19 03:22:06;;;;;;;1.23;0.50;;;;;;;13.39;94.79;100492.38;5018355;28;20060;-51
2023/03/19 03:24:32;;;;;;;0.52;0.50;;;;;;;13.52;94.17;100501.75;5031722;28;20090;-48
2023/03/19 03:26:58;;;;;;;1.15;0.70;;;;;;;13.47;94.25;100502.09;5021016;28;20026;-50
2023/03/19 03:29:24;;;;;;;0.75;0.32;;;;;;;13.36;94.71;100498.53;5018622;28;20022;-51
2023/03/19 03:31:50;;;;;;;0.93;0.60;;;;;;;13.20;95.56;100509.63;5035522;28;20051;-51
2023/03/19 03:34:15;;;;;;;0.77;0.60;;;;;;;13.28;95.67;100503.13;5037883;28;20052;-46
2023/03/19 03:36:41;;;;;;;0.57;0.50;;;;;;;13.36;95.25;100499.31;5030161;28;20022;-51
2023/03/19 03:39:06;;;;;;;0.57;0.40;;;;;;;13.54;94.02;100505.63;5022905;28;20042;-50
2023/03/19 03:41:32;;;;;;;0.85;0.60;;;;;;;13.48;94.33;100503.66;5032018;28;20038;-45
2023/03/19 03:43:58;;;;;;;0.85;0.43;;;;;;;13.38;94.49;100501.66;5030589;28;20543;-48
2023/03/19 03:46:24;;;;;;;0.77;0.55;;;;;;;13.27;94.92;100514.31;5025214;28;20038;-49
2023/03/19 03:48:51;;;;;;;2.35;0.70;;;;;;;13.38;94.50;100501.66;5030392;28;20036;-46
2023/03/19 03:51:18;;;;;;;0.75;0.40;;;;;;;13.33;94.08;100504.72;5031474;28;20030;-51
2023/03/19 03:53:43;;;;;;;0.40;0.40;;;;;;;13.37;94.23;100500.09;5031714;28;20035;-50
2023/03/19 03:56:11;;;;;;;0.75;0.55;;;;;;;13.12;94.60;100499.16;5028865;28;20029;-53
2023/03/19 03:58:36;;;;;;;1.15;0.60;;;;;;;13.13;95.81;100495.28;5022387;28;20025;-50
2023/03/19 04:01:02;;;;;;;0.68;0.65;;;;;;;13.14;95.03;100494.91;5029512;28;20034;-47
2023/03/19 04:03:30;;;;;;;1.00;0.70;;;;;;;12.87;96.81;100490.84;5024357;28;20037;-50
2023/03/19 04:05:56;;;;;;;1.63;0.75;;;;;;;12.79;97.53;100491.91;5036711;28;20404;-51
2023/03/19 04:08:22;;;;;;;1.38;0.90;;;;;;;12.91;97.82;100488.91;5029799;28;20022;-51
2023/03/19 04:10:48;;;;;;;0.77;0.70;;;;;;;12.97;97.12;100497.47;5035342;28;20088;-50
2023/03/19 04:13:13;;;;;;;1.73;0.70;;;;;;;13.03;96.89;100493.25;5037079;28;20025;-51
2023/03/19 04:15:42;;;;;;;2.63;0.75;;;;;;;13.04;95.84;100489.44;5042304;28;20037;-48
2023/03/19 04:18:08;;;;;;;1.15;0.70;;;;;;;13.00;96.33;100499.41;5043159;28;20020;-47
2023/03/19 04:20:34;;;;;;;0.88;0.77;;;;;;;12.90;96.92;100490.06;5042413;28;20037;-46
2023/03/19 04:23:00;;;;;;;1.83;0.82;;;;;;;12.82;96.60;100490.38;5034502;28;20080;-53
2023/03/19 04:25:26;;;;;;;1.38;0.93;;;;;;;12.86;96.48;100496.59;5016360;28;20048;-51
2023/03/19 04:27:52;;;;;;;0.60;0.60;;;;;;;12.92;96.35;100490.47;5021913;28;20422;-51
2023/03/19 04:30:18;;;;;;;1.25;1.00;;;;;;;12.93;96.54;100505.53;5032280;23;20034;-66
2023/03/19 04:32:45;;;;;;;0.95;0.82;;;;;;;12.95;96.25;100494.38;5032136;28;20048;-65
2023/03/19 04:35:10;;;;;;;2.20;0.70;;;;;;;13.01;95.77;100498.25;5029125;28;20036;-66
2023/03/19 04:37:36;;;;;;;1.70;0.88;;;;;;;12.88;95.53;100495.06;5030871;28;20025;-64
2023/03/19 04:40:03;;;;;;;1.60;0.90;;;;;;;12.86;96.27;100488.47;5006785;28;20026;-65
2023/03/19 04:42:32;;;;;;;0.65;0.60;;;;;;;12.86;95.96;100500.06;5009990;28;20708;-65
2023/03/19 04:45:08;;;;;;;1.27;0.88;;;;;;;12.72;97.62;100501.88;5009740;28;20093;-66
2023/03/19 04:47:34;;;;;;;2.40;1.05;;;;;;;12.80;96.52;100498.06;5009185;28;20124;-65
2023/03/19 04:50:00;;;;;;;1.95;1.10;;;;;;;12.80;95.88;100495.38;5009669;28;20084;-66
2023/03/19 04:52:26;;;;;;;2.10;1.30;;;;;;;12.87;96.24;100508.97;5009860;28;20030;-65
2023/03/19 04:54:52;;;;;;;2.47;1.25;;;;;;;12.89;95.48;100501.25;5009082;28;20041;-64
2023/03/19 04:57:18;;;;;;;1.27;0.90;;;;;;;12.75;95.71;100498.44;5005714;28;20034;-65
2023/03/19 04:59:46;;;;;;;3.25;1.45;;;;;;;12.69;96.55;100501.50;5001390;28;20033;-65
2023/03/19 05:02:14;;;;;;;1.33;1.08;;;;;;;12.70;96.61;100499.53;5008550;28;20018;-65
2023/03/19 05:04:40;;;;;;;1.52;1.00;;;;;;;12.82;96.07;100499.25;5004069;28;20561;-65
2023/03/19 05:07:10;;;;;;;2.20;1.25;;;;;;;12.79;95.88;100502.72;5025816;28;20042;-65
2023/03/19 05:09:36;;;;;;;2.60;1.00;;;;;;;12.54;97.52;100496.31;5008842;28;20021;-65
2023/03/19 05:12:01;;;;;;;2.30;1.20;;;;;;;12.40;98.69;100502.34;4998372;28;20042;-64
2023/03/19 05:14:31;;;;;;;1.90;1.30;;;;;;;12.63;97.88;100500.28;5002603;28;20021;-65
2023/03/19 05:17:18;;;;;;;2.28;1.42;;;;;;;12.77;97.73;100504.25;5004289;28;20209;-64
2023/03/19 05:20:03;;;;;;;3.17;1.48;;;;;;;12.69;97.50;100515.00;5008730;28;20049;-65
2023/03/19 05:22:30;;;;;;;1.10;1.00;;;;;;;12.73;96.61;100508.84;5009629;28;20513;-65
2023/03/19 05:24:56;;;;;;;1.38;1.05;;;;;;;12.57;98.08;100509.84;5009049;28;20030;-65
2023/03/19 05:27:22;;;;;;;3.95;1.38;;;;;;;12.60;98.11;100501.00;5006405;28;20026;-65
2023/03/19 05:30:01;;;;;;;2.90;1.48;;;;;;;12.67;97.59;100505.69;5022949;28;20033;-65
2023/03/19 05:32:47;;;;;;;1.98;1.40;;;;;;;12.73;97.32;100501.50;5010606;28;20041;-65
2023/03/19 05:35:23;;;;;;;2.30;1.42;;;;;;;12.83;96.97;100503.53;4991266;28;20029;-65
2023/03/19 05:37:49;;;;;;;2.17;1.13;;;;;;;12.76;96.78;100500.75;5010544;28;20100;-66
2023/03/19 05:40:15;;;;;;;4.22;1.48;;;;;;;12.79;96.89;100502.72;5009089;28;20050;-66
2023/03/19 05:42:43;;;;;;;2.20;1.25;;;;;;;12.66;97.07;100502.22;5009862;28;20153;-66
2023/03/19 05:45:10;;;;;;;1.38;1.10;;;;;;;12.84;96.70;100515.09;5009453;28;20446;-66
2023/03/19 05:47:47;;;;;;;2.42;0.98;;;;;;;12.82;96.59;100506.59;5008662;28;20030;-66
2023/03/19 05:50:13;;;;;;;1.45;1.30;;;;;;;12.72;97.29;100508.06;5009340;28;20036;-66
2023/03/19 05:52:44;;;;;;;3.00;1.65;;;;;;;12.76;97.12;100514.25;5009331;28;20030;-66
2023/03/19 05:55:10;;;;;;;2.05;1.17;;;;;;;12.85;96.71;100516.66;5010684;28;20088;-66
2023/03/19 05:57:41;;;;;;;1.67;1.23;;;;;;;12.78;96.69;100516.59;5000145;28;20101;-66
2023/03/19 06:00:17;;;;;;;1.45;1.15;;;;;;;12.83;96.47;100508.94;5017054;28;20030;-65
2023/03/19 06:02:45;;;;;;;3.90;1.45;;;;;;;12.81;96.90;100505.84;4992395;28;20038;-66
2023/03/19 06:05:21;;;;;;;1.25;1.10;;;;;;;12.47;98.62;100507.81;5012639;28;20410;-66
2023/03/19 06:07:47;;;;;;;1.17;1.08;;;;;;;12.63;97.50;100508.38;5012087;28;20029;-66
2023/03/19 06:10:21;;;;;;;2.40;1.27;;;;;;;12.77;97.34;100509.66;5012304;28;20402;-67
2023/03/19 06:12:51;;;;;;;2.97;1.40;;;;;;;12.75;97.10;100509.25;5002761;28;20034;-66
2023/03/19 06:15:42;;;;;;;;;;;;;;;12.77;97.35;100515.06;5004440;28;20041;-66
2023/03/19 06:18:17;;;;;;;2.28;1.85;;;;;;;12.72;97.67;100512.69;5005800;28;19914;-66
2023/03/19 06:20:45;;;;;;;3.55;1.40;;;;;;;12.77;98.18;100520.47;5012520;28;20634;-67
2023/03/19 06:23:11;;;;;;;2.17;1.00;;;;;;;12.95;96.87;100511.34;5012798;28;20121;-66
2023/03/19 06:25:37;;;;;;;3.85;1.77;;;;;;;12.98;96.94;100516.00;5008871;28;20149;-66
2023/03/19 06:28:03;;;;;;;1.50;1.10;;;;;;;13.06;97.79;100517.66;5023389;28;20080;-66
2023/03/19 06:30:35;;;;;;;1.52;1.23;;;;;;;13.13;97.31;100522.31;5020894;28;20049;-66
2023/03/19 06:33:03;;;;;;;3.10;1.33;;;;;;;13.30;96.68;100529.78;5027080;28;20133;-67
2023/03/19 06:35:30;;;;;;;2.15;1.52;;;;;;;13.40;96.37;100539.91;5012694;28;20037;-67
2023/03/19 06:37:55;;;;;;;2.17;1.42;;;;;;;13.39;95.29;100535.66;5011418;28;20026;-66
2023/03/19 06:40:21;;;;;;;4.97;1.30;;;;;;;13.36;95.07;100523.66;5013993;28;20109;-65
2023/03/19 06:42:47;;;;;;;4.00;1.83;;;;;;;13.34;95.92;100523.25;5014204;28;20056;-65
2023/03/19 06:45:15;;;;;;;2.80;1.10;;;;;;;13.45;95.88;100543.03;5012060;28;20028;-64
2023/03/19 06:47:50;;;;;;;2.53;1.40;;;;;;;13.57;95.96;100541.97;5013577;28;20034;-65
2023/03/19 06:50:16;;;;;;;2.67;1.17;;;;;;;13.39;95.59;100541.09;5013530;28;20038;-63
2023/03/19 06:52:43;;;;;;;2.53;1.55;;;;;;;13.57;94.74;100541.97;5013969;28;20106;-63
2023/03/19 06:55:10;;;;;;;2.05;1.20;;;;;;;13.54;95.04;100558.97;5012237;28;20088;-63
2023/03/19 06:57:36;;;;;;;1.83;1.17;;;;;;;13.65;95.27;100559.00;5007370;28;20438;-62
2023/03/19 07:00:06;;;;;;;2.97;1.55;;;;;;;13.65;95.20;100565.22;5026889;28;20018;-63
2023/03/19 07:02:31;;;;;;;2.08;1.50;;;;;;;13.85;93.87;100561.09;5007410;28;20021;-62
2023/03/19 07:04:57;;;;;;;3.95;1.38;;;;;;;13.92;93.17;100568.44;5004813;28;20570;-62
2023/03/19 07:07:22;;;;;;;2.72;1.45;;;;;;;13.96;93.03;100563.84;5010990;28;20029;-63
2023/03/19 07:09:47;;;;;;;1.95;1.35;;;;;;;14.12;92.48;100567.00;5012618;28;20048;-63
2023/03/19 07:12:13;;;;;;;3.00;1.40;;;;;;;14.21;92.44;100564.72;5010849;28;20049;-64
2023/03/19 07:14:38;;;;;;;2.10;0.98;;;;;;;14.36;91.48;100567.13;4988241;28;20022;-63
2023/03/19 07:17:04;;;;;;;4.07;1.48;;;;;;;14.28;90.91;100570.22;5018290;28;20042;-62
2023/03/19 07:19:30;;;;;;;2.53;1.33;;;;;;;14.29;90.48;100564.41;5001558;28;20026;-63
2023/03/19 07:21:55;;;;;;;1.92;1.17;;;;;;;14.18;90.35;100571.69;5012657;28;20501;-62
2023/03/19 07:24:20;;;;;;;1.75;1.20;;;;;;;14.24;89.68;100575.59;5012086;28;20116;-64
2023/03/19 07:26:46;;;;;;;2.55;1.48;;;;;;;14.38;88.81;100583.03;5012138;28;20045;-61
2023/03/19 07:29:32;;;;;;;1.63;1.25;;;;;;;14.57;88.66;100577.28;5005786;28;20142;-63
2023/03/19 07:31:58;;;;;;;1.30;0.95;;;;;;;14.56;88.69;100580.34;4934146;29;20059;-63
2023/03/19 07:34:23;;;;;;;1.85;1.38;;;;;;;14.50;88.24;100581.91;4931438;29;20110;-63
2023/03/19 07:36:50;;;;;;;2.40;1.17;;;;;;;14.54;88.04;100585.41;4936809;29;20122;-63
2023/03/19 07:39:15;;;;;;;2.15;1.00;;;;;;;14.86;87.31;100581.59;4932660;29;20044;-64
2023/03/19 07:41:43;;;;;;;3.70;1.10;;;;;;;15.03;86.49;100577.34;4932453;29;20058;-63
2023/03/19 07:44:14;;;;;;;1.75;0.98;;;;;;;15.05;85.79;100575.03;4916809;29;20420;-62
2023/03/19 07:46:40;;;;;;;1.85;0.90;;;;;;;15.40;85.17;100583.19;4931376;29;20043;-63
2023/03/19 07:49:06;;;;;;;2.13;0.93;;;;;;;15.34;83.35;100579.31;4931772;29;20110;-65
2023/03/19 07:51:32;;;;;;;2.05;1.13;;;;;;;15.52;82.69;100582.81;4932244;29;20052;-64
2023/03/19 07:53:57;;;;;;;2.17;1.10;;;;;;;15.98;81.40;100580.00;4931834;29;20042;-64
2023/03/19 07:56:23;;;;;;;1.65;0.80;;;;;;;15.83;80.75;100590.13;4931326;29;20590;-63
2023/03/19 07:58:48;;;;;;;3.17;0.95;;;;;;;15.98;80.46;100593.59;4931109;29;20114;-64
2023/03/19 08:01:14;;;;;;;1.95;1.08;;;;;;;16.43;79.40;100600.03;4931641;29;20036;-65
2023/03/19 08:03:39;;;;;;;2.70;1.40;;;;;;;16.35;78.71;100590.34;4932071;29;20059;-63
2023/03/19 08:06:05;;;;;;;1.42;0.98;;;;;;;16.61;78.27;100590.63;4930591;29;20038;-61
2023/03/19 08:08:33;;;;;;;1.88;1.02;;;;;;;16.96;77.42;100585.00;4956656;28;20038;-63
2023/03/19 08:10:59;;;;;;;1.52;1.20;;;;;;;16.70;77.14;100601.09;5011517;28;20044;-64
2023/03/19 08:13:24;;;;;;;2.33;1.00;;;;;;;16.93;76.01;100602.13;5011294;28;20038;-65
2023/03/19 08:15:51;;;;;;;1.88;1.20;;;;;;;16.85;75.97;100602.56;5011284;28;20037;-64
2023/03/19 08:18:16;;;;;;;1.30;0.88;;;;;;;16.82;75.36;100598.69;4999412;28;20041;-64
2023/03/19 08:20:43;;;;;;;2.75;1.05;;;;;;;16.93;76.17;100593.19;5014857;28;20038;-63
2023/03/19 08:23:09;;;;;;;1.23;1.08;;;;;;;16.91;76.33;100596.31;5011032;28;20037;-65
2023/03/19 08:25:34;;;;;;;1.85;1.33;;;;;;;17.02;75.35;100588.06;5010844;28;20076;-63
2023/03/19 08:28:00;;;;;;;1.50;0.80;;;;;;;16.98;75.48;100593.53;5011137;28;20100;-63
2023/03/19 08:30:25;;;;;;;2.92;1.02;;;;;;;17.20;75.65;100605.03;5011568;28;20044;-64
2023/03/19 08:32:51;;;;;;;1.48;0.98;;;;;;;16.93;74.61;100606.78;5010139;28;20038;-66
2023/03/19 08:35:16;;;;;;;2.33;1.27;;;;;;;17.01;74.01;100602.84;5010349;28;20513;-64
2023/03/19 08:37:42;;;;;;;1.80;0.93;;;;;;;17.10;74.04;100608.59;5002160;28;20097;-64
2023/03/19 08:40:08;;;;;;;1.77;1.02;;;;;;;17.05;74.13;100609.03;5010243;28;20038;-65
2023/03/19 08:42:34;;;;;;;1.52;0.90;;;;;;;16.83;76.31;100600.25;5009964;28;20042;-65
2023/03/19 08:44:59;;;;;;;1.50;0.90;;;;;;;16.75;76.60;100600.66;5010504;28;20045;-63
2023/03/19 08:47:25;;;;;;;0.85;0.75;;;;;;;16.89;76.16;100614.19;5001649;28;20042;-65
2023/03/19 08:49:51;;;;;;;3.65;0.90;;;;;;;17.03;75.79;100609.41;5006817;28;20033;-66
2023/03/19 08:52:17;;;;;;;1.70;0.93;;;;;;;16.96;75.87;100619.56;5009681;28;20037;-65
2023/03/19 08:54:43;;;;;;;1.50;0.85;;;;;;;16.93;76.15;100621.16;5009804;28;20026;-65
2023/03/19 08:57:09;;;;;;;1.30;1.00;;;;;;;16.99;76.18;100618.78;5009099;28;20034;-65
2023/03/19 08:59:35;;;;;;;2.05;1.67;;;;;;;16.93;76.38;100625.81;5010857;28;20037;-65
2023/03/19 09:02:00;;;;;;;7.78;1.33;;;;;;;16.99;75.60;100625.00;4998743;28;20025;-65
2023/03/19 09:04:26;;;;;;;1.55;0.80;;;;;;;17.13;75.05;100624.13;5006105;28;20512;-66
2023/03/19 09:06:51;;;;;;;1.13;0.73;;;;;;;17.25;74.37;100620.94;5010591;28;20580;-65
2023/03/19 09:09:22;;;;;;;0.80;0.52;;;;;;;17.53;74.18;100628.94;5010920;28;20018;-64
2023/03/19 09:11:48;;;;;;;1.90;0.90;;;;;;;18.10;73.44;100628.38;5010533;28;20129;-66
2023/03/19 09:14:15;;;;;;;1.30;1.00;;;;;;;18.49;71.82;100634.94;5010591;28;20120;-66
2023/03/19 09:16:42;;;;;;;1.45;0.98;;;;;;;18.85;70.49;100627.84;5007158;28;20099;-67
2023/03/19 09:19:08;;;;;;;2.75;1.67;;;;;;;19.02;69.01;100622.53;4996491;28;20085;-66
2023/03/19 09:21:34;;;;;;;1.60;0.85;;;;;;;19.34;67.75;100629.09;5009350;28;20065;-66
2023/03/19 09:23:59;;;;;;;1.63;0.88;;;;;;;19.74;64.93;100628.00;5010910;28;20491;-67
2023/03/19 09:26:25;;;;;;;2.55;1.00;;;;;;;19.96;63.91;100633.88;5009048;28;20038;-67
2023/03/19 09:28:50;;;;;;;1.52;1.08;;;;;;;20.37;61.08;100628.03;5010938;28;20037;-67
2023/03/19 09:31:16;;;;;;;1.10;0.90;;;;;;;20.54;59.47;100646.06;5014059;28;20030;-66
2023/03/19 09:33:41;;;;;;;1.90;0.85;;;;;;;20.84;58.86;100642.31;5014457;28;20034;-67
2023/03/19 09:36:07;;;;;;;2.38;1.30;;;;;;;20.92;58.52;100643.69;5013834;28;20038;-66
2023/03/19 09:38:32;;;;;;;0.98;0.88;;;;;;;21.36;56.33;100640.34;5008999;28;20037;-66
2023/03/19 09:41:07;;;;;;;1.90;0.90;;;;;;;21.48;55.35;100656.09;5006315;28;20072;-65
2023/03/19 09:43:35;;;;;;;2.28;0.90;;;;;;;21.50;55.50;100648.22;5012952;28;20033;-66
2023/03/19 09:46:06;;;;;;;0.95;0.70;;;;;;;21.50;55.35;100653.72;5008994;28;20046;-65
2023/03/19 09:48:45;;;;;;;0.55;0.50;;;;;;;21.44;55.50;100652.69;5004129;28;20041;-65
2023/03/19 09:51:20;;;;;;;1.40;0.90;;;;;;;21.91;54.96;100656.59;5012598;28;20414;-63
2023/03/19 09:54:16;;;;;;;1.63;0.70;;;;;;;22.47;52.61;100657.03;5008934;28;20117;-63
2023/03/19 09:56:42;;;;;;;0.60;0.60;;;;;;;22.27;52.09;100657.19;5008587;28;20040;-63
2023/03/19 09:59:08;;;;;;;1.50;0.93;;;;;;;22.40;51.57;100655.25;5014196;28;20038;-63
2023/03/19 10:01:36;;;;;;;1.35;0.70;;;;;;;22.22;51.88;100652.22;5010623;28;20064;-63
2023/03/19 10:04:01;;;;;;;2.58;0.82;;;;;;;21.98;53.74;100650.16;5004623;28;20037;-63
2023/03/19 10:06:34;;;;;;;0.93;0.65;;;;;;;22.09;53.29;100645.94;5012775;28;20443;-64
2023/03/19 10:09:21;;;;;;;0.80;0.50;;;;;;;21.66;53.36;100652.94;5013041;28;20548;-63
2023/03/19 10:12:10;;;;;;;1.70;0.70;;;;;;;21.42;52.97;100644.91;5008880;28;20057;-65
2023/03/19 10:14:51;;;;;;;0.40;0.38;;;;;;;21.51;54.10;100647.00;5013828;28;20040;-65
2023/03/19 10:17:53;;;;;;;1.47;0.80;;;;;;;21.82;52.74;100644.69;5010470;28;20065;-65
2023/03/19 10:20:33;;;;;;;0.82;0.65;;;;;;;22.10;51.89;100643.97;5005906;28;20081;-64
2023/03/19 10:23:21;;;;;;;1.00;0.70;;;;;;;22.03;52.30;100652.34;5005909;28;20042;-66
2023/03/19 10:25:47;;;;;;;0.95;0.60;;;;;;;21.67;52.34;100649.75;5010145;28;20029;-66
2023/03/19 10:28:16;;;;;;;1.23;0.60;;;;;;;21.61;54.04;100650.69;5008717;28;20093;-66
2023/03/19 10:30:48;;;;;;;2.10;0.70;;;;;;;21.86;53.55;100656.34;5023011;23;20077;-68
2023/03/19 10:33:22;;;;;;;0.90;0.50;;;;;;;21.57;53.92;100648.03;5031939;28;20116;-71
2023/03/19 10:35:58;;;;;;;0.52;0.40;;;;;;;21.56;53.41;100649.25;5032511;28;20094;-69
2023/03/19 10:38:25;;;;;;;2.20;0.50;;;;;;;21.63;52.94;100645.56;5032942;28;20030;-68
2023/03/19 10:41:18;;;;;;;2.72;0.80;;;;;;;21.92;51.50;100649.13;5027527;28;20037;-69
2023/03/19 10:43:51;;;;;;;2.10;0.57;;;;;;;21.55;52.69;100644.97;5031828;28;20557;-68
2023/03/19 10:46:16;;;;;;;0.65;0.52;;;;;;;21.69;52.74;100643.84;5031140;28;20072;-69
2023/03/19 10:48:45;;;;;;;0.40;0.40;;;;;;;21.60;52.38;100644.47;5032005;28;20793;-68
2023/03/19 10:51:15;;;;;;;0.98;0.50;;;;;;;21.62;53.56;100644.03;5031434;28;20490;-69
2023/03/19 10:53:41;;;;;;;0.73;0.65;;;;;;;21.72;53.50;100640.25;5030037;28;20037;-70
2023/03/19 10:56:16;;;;;;;0.50;0.50;;;;;;;21.93;53.29;100639.72;5031440;28;20124;-68
2023/03/19 10:58:57;;;;;;;0.47;0.47;;;;;;;22.22;52.43;100646.72;5022376;28;20037;-69
2023/03/19 11:01:26;;;;;;;4.05;0.93;;;;;;;22.38;51.52;100640.41;5022949;28;20033;-68
2023/03/19 11:03:57;;;;;;;0.57;0.50;;;;;;;22.23;50.62;100642.03;5031304;28;20051;-68
2023/03/19 11:06:34;;;;;;;0.90;0.50;;;;;;;22.07;50.50;100640.09;5031137;28;20035;-69
2023/03/19 11:09:21;;;;;;;0.40;0.40;;;;;;;21.82;50.54;100641.94;5030350;28;20092;-69
2023/03/19 11:11:56;;;;;;;0.93;0.50;;;;;;;21.37;51.92;100644.59;5018488;28;20068;-68
2023/03/19 11:14:45;;;;;;;1.63;0.50;;;;;;;21.89;50.95;100650.00;5029297;28;20375;-69
2023/03/19 11:17:25;;;;;;;0.73;0.40;;;;;;;22.24;50.14;100638.09;5022554;28;20095;-70
2023/03/19 11:19:56;;;;;;;1.15;0.60;;;;;;;22.39;49.28;100641.97;5020101;28;20064;-68
2023/03/19 11:22:32;;;;;;;;;;;;;;;22.07;49.68;100640.09;5022790;28;20496;-69
2023/03/19 11:25:14;;;;;;;0.88;0.47;;;;;;;22.28;49.81;100639.50;5011757;28;19967;-69
2023/03/19 11:27:40;;;;;;;0.68;0.60;;;;;;;22.43;49.04;100637.16;5030462;28;20308;-68
2023/03/19 11:30:16;;;;;;;1.67;0.50;;;;;;;22.16;49.08;100642.22;5012858;28;20049;-69
2023/03/19 11:32:45;;;;;;;0.40;0.40;;;;;;;21.99;49.48;100643.47;5020995;28;20065;-71
2023/03/19 11:35:20;;;;;;;0.40;0.40;;;;;;;21.82;50.16;100637.25;5023683;28;20472;-68
2023/03/19 11:37:59;;;;;;;1.92;0.63;;;;;;;21.84;50.76;100629.34;5010208;28;20430;-68